sensor_id;sensor_type;location;lat;lon;timestamp;P1;durP1;ratioP1;P2;durP2;ratioP2
30378;SDS011;17168;49.164;9.060;2023-03-20T00:01:13;1.90;;;0.95;;
30378;SDS011;17168;49.164;9.060;2023-03-20T00:03:48;0.52;;;0.52;;
30378;SDS011;17168;49.164;9.060;2023-03-20T00:06:20;0.85;;;0.63;;
30378;SDS011;17168;49.164;9.060;2023-03-20T00:08:53;1.30;;;0.90;;
30378;SDS011;17168;49.164;9.060;2023-03-20T00:11:28;2.05;;;1.00;;
30378;SDS011;17168;49.164;9.060;2023-03-20T00:14:03;1.20;;;1.08;;
30378;SDS011;17168;49.164;9.060;2023-03-20T00:16:40;0.85;;;0.80;;
30378;SDS011;17168;49.164;9.060;2023-03-20T00:19:14;1.73;;;1.10;;
30378;SDS011;17168;49.164;9.060;2023-03-20T00:21:48;0.90;;;0.77;;
30378;SDS011;17168;49.164;9.060;2023-03-20T00:24:21;1.50;;;0.98;;
30378;SDS011;17168;49.164;9.060;2023-03-20T00:26:54;2.17;;;0.85;;
30378;SDS011;17168;49.164;9.060;2023-03-20T00:29:27;1.50;;;0.95;;
30378;SDS011;17168;49.164;9.060;2023-03-20T00:32:07;1.20;;;0.88;;
30378;SDS011;17168;49.164;9.060;2023-03-20T00:34:42;1.40;;;0.75;;
30378;SDS011;17168;49.164;9.060;2023-03-20T00:37:14;1.02;;;0.32;;
30378;SDS011;17168;49.164;9.060;2023-03-20T00:39:46;1.80;;;1.08;;
30378;SDS011;17168;49.164;9.060;2023-03-20T00:42:19;2.25;;;1.17;;
30378;SDS011;17168;49.164;9.060;2023-03-20T00:44:55;1.00;;;0.80;;
30378;SDS011;17168;49.164;9.060;2023-03-20T00:47:32;1.88;;;0.95;;
30378;SDS011;17168;49.164;9.060;2023-03-20T00:50:13;1.80;;;0.68;;
30378;SDS011;17168;49.164;9.060;2023-03-20T00:52:47;1.40;;;0.98;;
30378;SDS011;17168;49.164;9.060;2023-03-20T00:55:21;2.15;;;1.17;;
30378;SDS011;17168;49.164;9.060;2023-03-20T00:57:55;1.65;;;1.55;;
30378;SDS011;17168;49.164;9.060;2023-03-20T01:00:32;2.03;;;1.25;;
30378;SDS011;17168;49.164;9.060;2023-03-20T01:03:14;1.88;;;0.90;;
30378;SDS011;17168;49.164;9.060;2023-03-20T01:05:48;1.65;;;1.30;;
30378;SDS011;17168;49.164;9.060;2023-03-20T01:08:22;2.67;;;1.15;;
30378;SDS011;17168;49.164;9.060;2023-03-20T01:10:56;1.50;;;1.33;;
30378;SDS011;17168;49.164;9.060;2023-03-20T01:13:29;2.63;;;1.80;;
30378;SDS011;17168;49.164;9.060;2023-03-20T01:16:02;1.80;;;1.23;;
30378;SDS011;17168;49.164;9.060;2023-03-20T01:18:38;2.00;;;1.08;;
30378;SDS011;17168;49.164;9.060;2023-03-20T01:21:10;2.30;;;1.52;;
30378;SDS011;17168;49.164;9.060;2023-03-20T01:23:42;1.40;;;1.20;;
30378;SDS011;17168;49.164;9.060;2023-03-20T01:26:19;1.67;;;1.33;;
30378;SDS011;17168;49.164;9.060;2023-03-20T01:28:53;1.77;;;1.30;;
30378;SDS011;17168;49.164;9.060;2023-03-20T01:31:25;2.40;;;1.10;;
30378;SDS011;17168;49.164;9.060;2023-03-20T01:34:01;1.65;;;1.10;;
30378;SDS011;17168;49.164;9.060;2023-03-20T01:36:33;1.83;;;1.00;;
30378;SDS011;17168;49.164;9.060;2023-03-20T01:39:08;1.77;;;1.30;;
30378;SDS011;17168;49.164;9.060;2023-03-20T01:41:40;1.77;;;1.10;;
30378;SDS011;17168;49.164;9.060;2023-03-20T01:44:16;1.38;;;1.20;;
30378;SDS011;17168;49.164;9.060;2023-03-20T01:46:50;3.08;;;0.73;;
30378;SDS011;17168;49.164;9.060;2023-03-20T01:52:28;1.90;;;1.33;;
30378;SDS011;17168;49.164;9.060;2023-03-20T01:55:00;1.98;;;0.90;;
30378;SDS011;17168;49.164;9.060;2023-03-20T01:57:34;1.27;;;0.90;;
30378;SDS011;17168;49.164;9.060;2023-03-20T02:00:08;2.08;;;1.23;;
30378;SDS011;17168;49.164;9.060;2023-03-20T02:02:45;1.35;;;1.10;;
30378;SDS011;17168;49.164;9.060;2023-03-20T02:05:19;2.08;;;1.35;;
30378;SDS011;17168;49.164;9.060;2023-03-20T02:08:01;2.08;;;0.90;;
30378;SDS011;17168;49.164;9.060;2023-03-20T02:10:42;2.03;;;1.00;;
30378;SDS011;17168;49.164;9.060;2023-03-20T02:13:16;1.45;;;1.00;;
30378;SDS011;17168;49.164;9.060;2023-03-20T02:15:56;2.38;;;1.30;;
30378;SDS011;17168;49.164;9.060;2023-03-20T02:18:30;1.95;;;1.73;;
30378;SDS011;17168;49.164;9.060;2023-03-20T02:21:14;1.50;;;0.93;;
30378;SDS011;17168;49.164;9.060;2023-03-20T02:24:39;1.58;;;1.15;;
30378;SDS011;17168;49.164;9.060;2023-03-20T02:27:52;2.20;;;1.33;;
30378;SDS011;17168;49.164;9.060;2023-03-20T02:30:46;1.52;;;1.00;;
30378;SDS011;17168;49.164;9.060;2023-03-20T02:40:00;2.55;;;1.48;;
30378;SDS011;17168;49.164;9.060;2023-03-20T02:42:48;1.98;;;1.38;;
30378;SDS011;17168;49.164;9.060;2023-03-20T02:45:28;2.63;;;1.23;;
30378;SDS011;17168;49.164;9.060;2023-03-20T02:48:09;2.42;;;0.90;;
30378;SDS011;17168;49.164;9.060;2023-03-20T02:50:46;1.77;;;1.25;;
30378;SDS011;17168;49.164;9.060;2023-03-20T02:53:25;2.15;;;0.90;;
30378;SDS011;17168;49.164;9.060;2023-03-20T02:56:09;1.20;;;0.63;;
30378;SDS011;17168;49.164;9.060;2023-03-20T02:58:48;1.25;;;0.77;;
30378;SDS011;17168;49.164;9.060;2023-03-20T03:01:29;1.45;;;1.10;;
30378;SDS011;17168;49.164;9.060;2023-03-20T03:04:04;1.58;;;1.08;;
30378;SDS011;17168;49.164;9.060;2023-03-20T03:06:42;2.33;;;1.25;;
30378;SDS011;17168;49.164;9.060;2023-03-20T03:09:18;2.75;;;1.52;;
30378;SDS011;17168;49.164;9.060;2023-03-20T03:11:58;1.13;;;0.75;;
30378;SDS011;17168;49.164;9.060;2023-03-20T03:14:36;1.50;;;1.23;;
30378;SDS011;17168;49.164;9.060;2023-03-20T03:17:10;1.83;;;1.13;;
30378;SDS011;17168;49.164;9.060;2023-03-20T03:19:44;3.00;;;1.55;;
30378;SDS011;17168;49.164;9.060;2023-03-20T03:22:19;2.42;;;1.20;;
30378;SDS011;17168;49.164;9.060;2023-03-20T03:24:52;1.60;;;1.10;;
30378;SDS011;17168;49.164;9.060;2023-03-20T03:27:33;1.85;;;0.80;;
30378;SDS011;17168;49.164;9.060;2023-03-20T03:30:10;1.95;;;1.17;;
30378;SDS011;17168;49.164;9.060;2023-03-20T03:32:48;2.33;;;1.05;;
30378;SDS011;17168;49.164;9.060;2023-03-20T03:35:22;1.73;;;0.80;;
30378;SDS011;17168;49.164;9.060;2023-03-20T03:37:55;2.95;;;1.88;;
30378;SDS011;17168;49.164;9.060;2023-03-20T03:40:31;1.80;;;1.40;;
30378;SDS011;17168;49.164;9.060;2023-03-20T03:45:47;1.90;;;1.10;;
30378;SDS011;17168;49.164;9.060;2023-03-20T03:48:24;2.50;;;1.20;;
30378;SDS011;17168;49.164;9.060;2023-03-20T03:51:00;2.42;;;1.25;;
30378;SDS011;17168;49.164;9.060;2023-03-20T03:53:37;2.17;;;1.25;;
30378;SDS011;17168;49.164;9.060;2023-03-20T03:56:14;3.33;;;1.85;;
30378;SDS011;17168;49.164;9.060;2023-03-20T03:58:53;2.50;;;1.55;;
30378;SDS011;17168;49.164;9.060;2023-03-20T04:01:28;3.13;;;2.00;;
30378;SDS011;17168;49.164;9.060;2023-03-20T04:04:06;3.50;;;1.92;;
30378;SDS011;17168;49.164;9.060;2023-03-20T04:06:40;3.72;;;2.10;;
30378;SDS011;17168;49.164;9.060;2023-03-20T04:09:12;2.38;;;1.50;;
30378;SDS011;17168;49.164;9.060;2023-03-20T04:11:44;3.08;;;1.77;;
30378;SDS011;17168;49.164;9.060;2023-03-20T04:14:23;3.80;;;1.98;;
30378;SDS011;17168;49.164;9.060;2023-03-20T04:16:56;3.47;;;1.92;;
30378;SDS011;17168;49.164;9.060;2023-03-20T04:19:28;4.25;;;2.22;;
30378;SDS011;17168;49.164;9.060;2023-03-20T04:22:00;3.38;;;2.08;;
30378;SDS011;17168;49.164;9.060;2023-03-20T04:24:32;5.05;;;2.63;;
30378;SDS011;17168;49.164;9.060;2023-03-20T04:27:04;3.60;;;1.63;;
30378;SDS011;17168;49.164;9.060;2023-03-20T04:29:38;3.83;;;2.22;;
30378;SDS011;17168;49.164;9.060;2023-03-20T04:32:11;4.28;;;2.00;;
30378;SDS011;17168;49.164;9.060;2023-03-20T04:34:43;4.43;;;2.95;;
30378;SDS011;17168;49.164;9.060;2023-03-20T04:37:15;5.60;;;2.67;;
30378;SDS011;17168;49.164;9.060;2023-03-20T04:39:47;5.15;;;2.50;;
30378;SDS011;17168;49.164;9.060;2023-03-20T04:42:19;5.53;;;3.92;;
30378;SDS011;17168;49.164;9.060;2023-03-20T04:44:54;5.20;;;3.60;;
30378;SDS011;17168;49.164;9.060;2023-03-20T04:47:26;5.50;;;3.03;;
30378;SDS011;17168;49.164;9.060;2023-03-20T04:49:58;5.25;;;3.35;;
30378;SDS011;17168;49.164;9.060;2023-03-20T04:52:30;5.40;;;3.42;;
30378;SDS011;17168;49.164;9.060;2023-03-20T04:55:03;5.55;;;3.92;;
30378;SDS011;17168;49.164;9.060;2023-03-20T04:57:35;4.85;;;3.42;;
30378;SDS011;17168;49.164;9.060;2023-03-20T05:00:11;6.20;;;3.28;;
30378;SDS011;17168;49.164;9.060;2023-03-20T05:02:43;5.57;;;3.60;;
30378;SDS011;17168;49.164;9.060;2023-03-20T05:05:15;5.72;;;3.63;;
30378;SDS011;17168;49.164;9.060;2023-03-20T05:07:48;6.60;;;3.38;;
30378;SDS011;17168;49.164;9.060;2023-03-20T05:10:20;6.60;;;4.07;;
30378;SDS011;17168;49.164;9.060;2023-03-20T05:12:52;6.45;;;3.85;;
30378;SDS011;17168;49.164;9.060;2023-03-20T05:15:27;6.15;;;3.92;;
30378;SDS011;17168;49.164;9.060;2023-03-20T05:17:59;8.50;;;3.95;;
30378;SDS011;17168;49.164;9.060;2023-03-20T05:20:31;6.57;;;3.70;;
30378;SDS011;17168;49.164;9.060;2023-03-20T05:23:03;6.20;;;4.25;;
30378;SDS011;17168;49.164;9.060;2023-03-20T05:25:36;6.95;;;4.90;;
30378;SDS011;17168;49.164;9.060;2023-03-20T05:28:08;6.28;;;4.43;;
30378;SDS011;17168;49.164;9.060;2023-03-20T05:30:43;7.65;;;4.47;;
30378;SDS011;17168;49.164;9.060;2023-03-20T05:33:15;6.68;;;4.43;;
30378;SDS011;17168;49.164;9.060;2023-03-20T05:35:47;8.93;;;5.18;;
30378;SDS011;17168;49.164;9.060;2023-03-20T05:38:19;7.47;;;4.90;;
30378;SDS011;17168;49.164;9.060;2023-03-20T05:40:56;7.75;;;5.13;;
30378;SDS011;17168;49.164;9.060;2023-03-20T05:43:28;7.88;;;4.70;;
30378;SDS011;17168;49.164;9.060;2023-03-20T05:46:03;9.90;;;5.93;;
30378;SDS011;17168;49.164;9.060;2023-03-20T05:48:43;8.55;;;5.20;;
30378;SDS011;17168;49.164;9.060;2023-03-20T05:51:15;10.15;;;6.18;;
30378;SDS011;17168;49.164;9.060;2023-03-20T05:53:53;9.43;;;6.03;;
30378;SDS011;17168;49.164;9.060;2023-03-20T05:56:25;10.43;;;5.78;;
30378;SDS011;17168;49.164;9.060;2023-03-20T05:58:59;9.55;;;5.75;;
30378;SDS011;17168;49.164;9.060;2023-03-20T06:01:35;10.50;;;6.22;;
30378;SDS011;17168;49.164;9.060;2023-03-20T06:04:07;10.13;;;5.53;;
30378;SDS011;17168;49.164;9.060;2023-03-20T06:10:35;10.77;;;6.30;;
30378;SDS011;17168;49.164;9.060;2023-03-20T06:12:35;10.25;;;6.25;;
30378;SDS011;17168;49.164;9.060;2023-03-20T06:15:12;9.88;;;6.15;;
30378;SDS011;17168;49.164;9.060;2023-03-20T06:17:47;11.02;;;6.53;;
30378;SDS011;17168;49.164;9.060;2023-03-20T06:20:19;10.40;;;6.65;;
30378;SDS011;17168;49.164;9.060;2023-03-20T06:22:51;10.27;;;6.85;;
30378;SDS011;17168;49.164;9.060;2023-03-20T06:25:23;8.80;;;5.50;;
30378;SDS011;17168;49.164;9.060;2023-03-20T06:27:55;9.60;;;6.20;;
30378;SDS011;17168;49.164;9.060;2023-03-20T06:30:28;9.23;;;5.93;;
30378;SDS011;17168;49.164;9.060;2023-03-20T06:33:03;10.05;;;6.45;;
30378;SDS011;17168;49.164;9.060;2023-03-20T06:35:37;11.13;;;5.97;;
30378;SDS011;17168;49.164;9.060;2023-03-20T06:38:09;9.80;;;6.43;;
30378;SDS011;17168;49.164;9.060;2023-03-20T06:40:42;10.23;;;5.65;;
30378;SDS011;17168;49.164;9.060;2023-03-20T06:43:15;8.32;;;5.38;;
30378;SDS011;17168;49.164;9.060;2023-03-20T06:45:47;8.82;;;5.35;;
30378;SDS011;17168;49.164;9.060;2023-03-20T06:48:22;10.88;;;6.03;;
30378;SDS011;17168;49.164;9.060;2023-03-20T06:50:54;10.52;;;5.82;;
30378;SDS011;17168;49.164;9.060;2023-03-20T06:53:26;9.70;;;6.13;;
30378;SDS011;17168;49.164;9.060;2023-03-20T06:55:58;7.57;;;5.05;;
30378;SDS011;17168;49.164;9.060;2023-03-20T06:58:30;7.53;;;3.95;;
30378;SDS011;17168;49.164;9.060;2023-03-20T07:01:07;8.63;;;5.35;;
30378;SDS011;17168;49.164;9.060;2023-03-20T07:03:43;8.13;;;5.40;;
30378;SDS011;17168;49.164;9.060;2023-03-20T07:06:15;8.90;;;5.75;;
30378;SDS011;17168;49.164;9.060;2023-03-20T07:08:49;9.23;;;5.97;;
30378;SDS011;17168;49.164;9.060;2023-03-20T07:11:23;8.63;;;4.70;;
30378;SDS011;17168;49.164;9.060;2023-03-20T07:13:55;6.10;;;3.03;;
30378;SDS011;17168;49.164;9.060;2023-03-20T07:16:27;10.60;;;5.55;;
30378;SDS011;17168;49.164;9.060;2023-03-20T07:19:02;10.32;;;5.75;;
30378;SDS011;17168;49.164;9.060;2023-03-20T07:21:34;8.90;;;5.00;;
30378;SDS011;17168;49.164;9.060;2023-03-20T07:24:06;9.05;;;5.30;;
30378;SDS011;17168;49.164;9.060;2023-03-20T07:26:38;12.13;;;5.80;;
30378;SDS011;17168;49.164;9.060;2023-03-20T07:29:11;10.63;;;6.50;;
30378;SDS011;17168;49.164;9.060;2023-03-20T07:31:44;4.72;;;2.88;;
30378;SDS011;17168;49.164;9.060;2023-03-20T07:34:19;10.73;;;6.10;;
30378;SDS011;17168;49.164;9.060;2023-03-20T07:36:51;10.77;;;5.00;;
30378;SDS011;17168;49.164;9.060;2023-03-20T07:39:23;10.60;;;5.13;;
30378;SDS011;17168;49.164;9.060;2023-03-20T07:41:55;5.50;;;3.50;;
30378;SDS011;17168;49.164;9.060;2023-03-20T07:44:27;10.50;;;5.15;;
30378;SDS011;17168;49.164;9.060;2023-03-20T07:46:59;11.48;;;6.82;;
30378;SDS011;17168;49.164;9.060;2023-03-20T07:49:34;13.75;;;7.65;;
30378;SDS011;17168;49.164;9.060;2023-03-20T07:52:06;11.45;;;5.72;;
30378;SDS011;17168;49.164;9.060;2023-03-20T07:54:38;12.82;;;6.72;;
30378;SDS011;17168;49.164;9.060;2023-03-20T07:57:10;10.23;;;5.70;;
30378;SDS011;17168;49.164;9.060;2023-03-20T07:59:43;10.93;;;6.10;;
30378;SDS011;17168;49.164;9.060;2023-03-20T08:02:15;11.60;;;6.97;;
30378;SDS011;17168;49.164;9.060;2023-03-20T08:04:50;11.73;;;6.43;;
30378;SDS011;17168;49.164;9.060;2023-03-20T08:07:22;12.07;;;6.88;;
30378;SDS011;17168;49.164;9.060;2023-03-20T08:09:55;10.23;;;5.35;;
30378;SDS011;17168;49.164;9.060;2023-03-20T08:12:27;9.95;;;4.07;;
30378;SDS011;17168;49.164;9.060;2023-03-20T08:14:59;10.95;;;6.95;;
30378;SDS011;17168;49.164;9.060;2023-03-20T08:17:31;10.30;;;5.82;;
30378;SDS011;17168;49.164;9.060;2023-03-20T08:20:06;9.25;;;5.55;;
30378;SDS011;17168;49.164;9.060;2023-03-20T08:22:39;11.38;;;7.15;;
30378;SDS011;17168;49.164;9.060;2023-03-20T08:25:13;8.60;;;5.68;;
30378;SDS011;17168;49.164;9.060;2023-03-20T08:27:45;10.25;;;4.45;;
30378;SDS011;17168;49.164;9.060;2023-03-20T08:30:17;7.60;;;3.92;;
30378;SDS011;17168;49.164;9.060;2023-03-20T08:32:49;10.68;;;6.80;;
30378;SDS011;17168;49.164;9.060;2023-03-20T08:35:24;10.07;;;6.47;;
30378;SDS011;17168;49.164;9.060;2023-03-20T08:38:03;10.20;;;6.35;;
30378;SDS011;17168;49.164;9.060;2023-03-20T08:40:36;11.38;;;6.18;;
30378;SDS011;17168;49.164;9.060;2023-03-20T08:43:11;8.30;;;4.30;;
30378;SDS011;17168;49.164;9.060;2023-03-20T08:45:43;12.00;;;6.15;;
30378;SDS011;17168;49.164;9.060;2023-03-20T08:48:15;10.25;;;6.00;;
30378;SDS011;17168;49.164;9.060;2023-03-20T08:50:50;8.18;;;4.85;;
30378;SDS011;17168;49.164;9.060;2023-03-20T08:53:22;11.07;;;7.18;;
30378;SDS011;17168;49.164;9.060;2023-03-20T08:55:54;10.63;;;6.18;;
30378;SDS011;17168;49.164;9.060;2023-03-20T08:58:27;7.60;;;4.35;;
30378;SDS011;17168;49.164;9.060;2023-03-20T09:01:02;7.38;;;4.13;;
30378;SDS011;17168;49.164;9.060;2023-03-20T09:03:35;10.00;;;5.20;;
30378;SDS011;17168;49.164;9.060;2023-03-20T09:06:10;10.65;;;5.68;;
30378;SDS011;17168;49.164;9.060;2023-03-20T09:08:42;10.80;;;7.13;;
30378;SDS011;17168;49.164;9.060;2023-03-20T09:11:14;10.82;;;5.70;;
30378;SDS011;17168;49.164;9.060;2023-03-20T09:13:46;10.85;;;5.53;;
30378;SDS011;17168;49.164;9.060;2023-03-20T09:16:18;11.85;;;6.40;;
30378;SDS011;17168;49.164;9.060;2023-03-20T09:18:50;9.60;;;6.20;;
30378;SDS011;17168;49.164;9.060;2023-03-20T09:21:25;10.63;;;5.57;;
30378;SDS011;17168;49.164;9.060;2023-03-20T09:23:57;10.55;;;6.00;;
30378;SDS011;17168;49.164;9.060;2023-03-20T09:26:29;9.60;;;5.78;;
30378;SDS011;17168;49.164;9.060;2023-03-20T09:29:01;12.93;;;6.07;;
30378;SDS011;17168;49.164;9.060;2023-03-20T09:31:33;5.95;;;3.55;;
30378;SDS011;17168;49.164;9.060;2023-03-20T09:34:05;8.70;;;5.45;;
30378;SDS011;17168;49.164;9.060;2023-03-20T09:36:40;8.93;;;4.40;;
30378;SDS011;17168;49.164;9.060;2023-03-20T09:39:12;7.90;;;4.88;;
30378;SDS011;17168;49.164;9.060;2023-03-20T09:41:45;10.77;;;6.07;;
30378;SDS011;17168;49.164;9.060;2023-03-20T09:44:40;10.52;;;6.10;;
30378;SDS011;17168;49.164;9.060;2023-03-20T09:47:26;7.38;;;4.35;;
30378;SDS011;17168;49.164;9.060;2023-03-20T09:50:08;9.68;;;5.57;;
30378;SDS011;17168;49.164;9.060;2023-03-20T09:52:56;8.50;;;5.20;;
30378;SDS011;17168;49.164;9.060;2023-03-20T09:55:34;9.88;;;4.55;;
30378;SDS011;17168;49.164;9.060;2023-03-20T09:58:11;11.60;;;5.68;;
30378;SDS011;17168;49.164;9.060;2023-03-20T10:00:47;9.30;;;6.13;;
30378;SDS011;17168;49.164;9.060;2023-03-20T10:03:20;7.90;;;4.85;;
30378;SDS011;17168;49.164;9.060;2023-03-20T10:05:55;12.13;;;6.32;;
30378;SDS011;17168;49.164;9.060;2023-03-20T10:08:34;10.45;;;6.32;;
30378;SDS011;17168;49.164;9.060;2023-03-20T10:13:53;9.60;;;5.50;;
30378;SDS011;17168;49.164;9.060;2023-03-20T10:16:37;9.45;;;4.75;;
30378;SDS011;17168;49.164;9.060;2023-03-20T10:19:17;5.50;;;3.92;;
30378;SDS011;17168;49.164;9.060;2023-03-20T10:21:56;7.70;;;4.35;;
30378;SDS011;17168;49.164;9.060;2023-03-20T10:24:35;8.20;;;4.68;;
30378;SDS011;17168;49.164;9.060;2023-03-20T10:27:12;9.55;;;5.72;;
30378;SDS011;17168;49.164;9.060;2023-03-20T10:29:50;9.77;;;5.97;;
30378;SDS011;17168;49.164;9.060;2023-03-20T10:32:32;9.68;;;5.38;;
30378;SDS011;17168;49.164;9.060;2023-03-20T10:35:12;11.43;;;6.63;;
30378;SDS011;17168;49.164;9.060;2023-03-20T10:37:55;13.93;;;7.22;;
30378;SDS011;17168;49.164;9.060;2023-03-20T10:40:38;12.30;;;6.97;;
30378;SDS011;17168;49.164;9.060;2023-03-20T10:43:13;12.02;;;7.55;;
30378;SDS011;17168;49.164;9.060;2023-03-20T10:45:50;13.52;;;7.93;;
30378;SDS011;17168;49.164;9.060;2023-03-20T10:48:29;13.25;;;8.20;;
30378;SDS011;17168;49.164;9.060;2023-03-20T10:51:04;12.98;;;7.90;;
30378;SDS011;17168;49.164;9.060;2023-03-20T10:53:45;12.25;;;7.25;;
30378;SDS011;17168;49.164;9.060;2023-03-20T10:56:25;12.52;;;8.55;;
30378;SDS011;17168;49.164;9.060;2023-03-20T10:59:03;10.95;;;6.50;;
30378;SDS011;17168;49.164;9.060;2023-03-20T11:01:39;15.68;;;9.52;;
30378;SDS011;17168;49.164;9.060;2023-03-20T11:04:11;14.27;;;8.48;;
30378;SDS011;17168;49.164;9.060;2023-03-20T11:06:45;12.20;;;8.77;;
30378;SDS011;17168;49.164;9.060;2023-03-20T11:09:23;4.03;;;2.72;;
30378;SDS011;17168;49.164;9.060;2023-03-20T11:12:00;10.00;;;5.95;;
30378;SDS011;17168;49.164;9.060;2023-03-20T11:14:33;12.13;;;7.95;;
30378;SDS011;17168;49.164;9.060;2023-03-20T11:17:08;6.97;;;5.05;;
30378;SDS011;17168;49.164;9.060;2023-03-20T11:19:42;8.35;;;5.55;;
30378;SDS011;17168;49.164;9.060;2023-03-20T11:22:21;7.13;;;4.68;;
30378;SDS011;17168;49.164;9.060;2023-03-20T11:24:56;4.72;;;3.65;;
30378;SDS011;17168;49.164;9.060;2023-03-20T11:27:34;8.77;;;5.65;;
30378;SDS011;17168;49.164;9.060;2023-03-20T11:30:10;9.45;;;6.35;;
30378;SDS011;17168;49.164;9.060;2023-03-20T11:32:48;7.07;;;4.97;;
30378;SDS011;17168;49.164;9.060;2023-03-20T11:35:25;5.07;;;3.08;;
30378;SDS011;17168;49.164;9.060;2023-03-20T11:38:09;3.88;;;3.40;;
30378;SDS011;17168;49.164;9.060;2023-03-20T11:40:46;6.53;;;4.88;;
30378;SDS011;17168;49.164;9.060;2023-03-20T11:43:22;6.65;;;4.35;;
30378;SDS011;17168;49.164;9.060;2023-03-20T11:45:57;2.38;;;1.45;;
30378;SDS011;17168;49.164;9.060;2023-03-20T11:48:35;2.40;;;1.88;;
30378;SDS011;17168;49.164;9.060;2023-03-20T11:51:09;2.67;;;2.05;;
30378;SDS011;17168;49.164;9.060;2023-03-20T11:53:54;8.52;;;3.08;;
30378;SDS011;17168;49.164;9.060;2023-03-20T11:56:32;2.47;;;1.58;;
30378;SDS011;17168;49.164;9.060;2023-03-20T11:59:10;3.67;;;2.05;;
30378;SDS011;17168;49.164;9.060;2023-03-20T12:01:46;6.97;;;3.50;;
30378;SDS011;17168;49.164;9.060;2023-03-20T12:04:20;4.65;;;3.90;;
30378;SDS011;17168;49.164;9.060;2023-03-20T12:07:00;4.80;;;4.03;;
30378;SDS011;17168;49.164;9.060;2023-03-20T12:09:36;4.10;;;3.10;;
30378;SDS011;17168;49.164;9.060;2023-03-20T12:12:12;5.15;;;3.65;;
30378;SDS011;17168;49.164;9.060;2023-03-20T12:14:55;7.07;;;4.50;;
30378;SDS011;17168;49.164;9.060;2023-03-20T12:17:33;3.67;;;2.50;;
30378;SDS011;17168;49.164;9.060;2023-03-20T12:20:13;7.30;;;3.17;;
30378;SDS011;17168;49.164;9.060;2023-03-20T12:22:55;3.50;;;2.92;;
30378;SDS011;17168;49.164;9.060;2023-03-20T12:25:34;5.18;;;3.38;;
30378;SDS011;17168;49.164;9.060;2023-03-20T12:28:13;4.90;;;2.92;;
30378;SDS011;17168;49.164;9.060;2023-03-20T12:31:00;4.55;;;2.60;;
30378;SDS011;17168;49.164;9.060;2023-03-20T12:33:39;3.85;;;3.17;;
30378;SDS011;17168;49.164;9.060;2023-03-20T12:36:18;5.45;;;3.25;;
30378;SDS011;17168;49.164;9.060;2023-03-20T12:39:00;4.85;;;4.35;;
30378;SDS011;17168;49.164;9.060;2023-03-20T12:41:37;5.05;;;4.43;;
30378;SDS011;17168;49.164;9.060;2023-03-20T12:44:19;5.15;;;3.78;;
30378;SDS011;17168;49.164;9.060;2023-03-20T12:47:25;5.63;;;2.85;;
30378;SDS011;17168;49.164;9.060;2023-03-20T12:50:13;3.80;;;2.47;;
30378;SDS011;17168;49.164;9.060;2023-03-20T12:52:54;5.20;;;4.03;;
30378;SDS011;17168;49.164;9.060;2023-03-20T12:55:38;4.68;;;2.70;;
30378;SDS011;17168;49.164;9.060;2023-03-20T12:58:23;4.32;;;2.92;;
30378;SDS011;17168;49.164;9.060;2023-03-20T13:01:01;6.15;;;3.03;;
30378;SDS011;17168;49.164;9.060;2023-03-20T13:03:42;4.53;;;2.70;;
30378;SDS011;17168;49.164;9.060;2023-03-20T13:06:27;5.82;;;2.95;;
30378;SDS011;17168;49.164;9.060;2023-03-20T13:09:14;6.35;;;3.03;;
30378;SDS011;17168;49.164;9.060;2023-03-20T13:12:11;4.65;;;3.00;;
30378;SDS011;17168;49.164;9.060;2023-03-20T13:14:55;7.25;;;3.58;;
30378;SDS011;17168;49.164;9.060;2023-03-20T13:17:34;5.63;;;2.08;;
30378;SDS011;17168;49.164;9.060;2023-03-20T13:20:21;5.95;;;3.33;;
30378;SDS011;17168;49.164;9.060;2023-03-20T13:25:56;4.15;;;3.05;;
30378;SDS011;17168;49.164;9.060;2023-03-20T13:28:50;3.35;;;1.92;;
30378;SDS011;17168;49.164;9.060;2023-03-20T13:31:31;5.82;;;3.22;;
30378;SDS011;17168;49.164;9.060;2023-03-20T13:34:20;6.18;;;2.65;;
30378;SDS011;17168;49.164;9.060;2023-03-20T13:37:08;4.53;;;2.40;;
30378;SDS011;17168;49.164;9.060;2023-03-20T13:40:02;3.17;;;1.45;;
30378;SDS011;17168;49.164;9.060;2023-03-20T13:42:42;2.85;;;1.52;;
30378;SDS011;17168;49.164;9.060;2023-03-20T13:48:04;4.85;;;2.78;;
30378;SDS011;17168;49.164;9.060;2023-03-20T13:50:47;2.72;;;1.85;;
30378;SDS011;17168;49.164;9.060;2023-03-20T13:53:27;2.80;;;2.13;;
30378;SDS011;17168;49.164;9.060;2023-03-20T13:56:05;3.30;;;1.80;;
30378;SDS011;17168;49.164;9.060;2023-03-20T13:58:45;2.75;;;1.52;;
30378;SDS011;17168;49.164;9.060;2023-03-20T14:01:28;2.88;;;1.40;;
30378;SDS011;17168;49.164;9.060;2023-03-20T14:04:08;4.45;;;2.08;;
30378;SDS011;17168;49.164;9.060;2023-03-20T14:06:47;3.08;;;2.13;;
30378;SDS011;17168;49.164;9.060;2023-03-20T14:09:32;4.78;;;2.17;;
30378;SDS011;17168;49.164;9.060;2023-03-20T14:12:06;3.22;;;1.95;;
30378;SDS011;17168;49.164;9.060;2023-03-20T14:14:41;3.13;;;2.47;;
30378;SDS011;17168;49.164;9.060;2023-03-20T14:17:17;4.60;;;2.30;;
30378;SDS011;17168;49.164;9.060;2023-03-20T14:19:54;3.00;;;1.40;;
30378;SDS011;17168;49.164;9.060;2023-03-20T14:22:33;3.72;;;2.38;;
30378;SDS011;17168;49.164;9.060;2023-03-20T14:25:13;3.88;;;1.80;;
30378;SDS011;17168;49.164;9.060;2023-03-20T14:27:54;2.72;;;1.60;;
30378;SDS011;17168;49.164;9.060;2023-03-20T14:30:42;3.20;;;2.10;;
30378;SDS011;17168;49.164;9.060;2023-03-20T14:33:24;3.67;;;1.85;;
30378;SDS011;17168;49.164;9.060;2023-03-20T14:36:11;3.45;;;2.65;;
30378;SDS011;17168;49.164;9.060;2023-03-20T14:38:54;3.17;;;1.73;;
30378;SDS011;17168;49.164;9.060;2023-03-20T14:41:46;3.22;;;1.05;;
30378;SDS011;17168;49.164;9.060;2023-03-20T14:44:29;3.10;;;1.77;;
30378;SDS011;17168;49.164;9.060;2023-03-20T14:47:21;2.33;;;2.00;;
30378;SDS011;17168;49.164;9.060;2023-03-20T14:50:02;1.83;;;1.08;;
30378;SDS011;17168;49.164;9.060;2023-03-20T14:52:43;2.85;;;1.30;;
30378;SDS011;17168;49.164;9.060;2023-03-20T14:55:45;3.67;;;2.47;;
30378;SDS011;17168;49.164;9.060;2023-03-20T14:58:37;3.03;;;2.05;;
30378;SDS011;17168;49.164;9.060;2023-03-20T15:01:33;3.35;;;1.70;;
30378;SDS011;17168;49.164;9.060;2023-03-20T15:07:12;4.53;;;1.48;;
30378;SDS011;17168;49.164;9.060;2023-03-20T15:09:46;1.63;;;0.98;;
30378;SDS011;17168;49.164;9.060;2023-03-20T15:12:22;2.53;;;1.35;;
30378;SDS011;17168;49.164;9.060;2023-03-20T15:14:59;3.38;;;1.40;;
30378;SDS011;17168;49.164;9.060;2023-03-20T15:17:39;3.17;;;1.40;;
30378;SDS011;17168;49.164;9.060;2023-03-20T15:20:15;2.88;;;1.75;;
30378;SDS011;17168;49.164;9.060;2023-03-20T15:22:55;2.88;;;1.38;;
30378;SDS011;17168;49.164;9.060;2023-03-20T15:25:30;2.85;;;1.15;;
30378;SDS011;17168;49.164;9.060;2023-03-20T15:28:06;2.50;;;1.83;;
30378;SDS011;17168;49.164;9.060;2023-03-20T15:30:41;3.83;;;1.80;;
30378;SDS011;17168;49.164;9.060;2023-03-20T15:33:16;3.38;;;2.30;;
30378;SDS011;17168;49.164;9.060;2023-03-20T15:35:53;4.00;;;1.23;;
30378;SDS011;17168;49.164;9.060;2023-03-20T15:38:26;4.88;;;2.03;;
30378;SDS011;17168;49.164;9.060;2023-03-20T15:41:03;3.88;;;2.00;;
30378;SDS011;17168;49.164;9.060;2023-03-20T15:43:36;2.63;;;1.73;;
30378;SDS011;17168;49.164;9.060;2023-03-20T15:46:11;1.25;;;0.90;;
30378;SDS011;17168;49.164;9.060;2023-03-20T15:48:48;4.13;;;2.00;;
30378;SDS011;17168;49.164;9.060;2023-03-20T15:51:21;3.67;;;1.95;;
30378;SDS011;17168;49.164;9.060;2023-03-20T15:54:00;3.38;;;2.45;;
30378;SDS011;17168;49.164;9.060;2023-03-20T15:56:38;4.05;;;2.35;;
30378;SDS011;17168;49.164;9.060;2023-03-20T15:59:16;3.13;;;2.25;;
30378;SDS011;17168;49.164;9.060;2023-03-20T16:01:54;3.17;;;1.45;;
30378;SDS011;17168;49.164;9.060;2023-03-20T16:04:28;2.80;;;1.17;;
30378;SDS011;17168;49.164;9.060;2023-03-20T16:07:01;1.90;;;1.25;;
30378;SDS011;17168;49.164;9.060;2023-03-20T16:09:41;2.90;;;1.63;;